Terminal Aerodrome Forecast
Issued by NWS Lubbock, TX

Home | Current Version | Previous Version | Text Only | Print | Product List | Glossary On
Versions: 1 2 3 4 5 6 7 8 9 10 11 12
000
FTUS44 KLUB 292320
TAFLBB
TAF
KLBB 292320Z 3000/3024 16011KT P6SM VCTS SCT070CB BKN200
      TEMPO 3000/3002 VRB30KT -TSRA BKN070CB BKN200
     FM300400 17008KT P6SM SCT080 SCT100=

USA.gov is the U.S. government's official web portal to all federal, state and local government web resources and services.